Midnight Tide — YJWE2 — position and weather

sailwx.info

Track history (hours):
 
Tides and Currents Weather Stations Pressure Air Temp Water Temp Dewpoint Dewpoint Depression Visibility Wind Speed Wind Dir Waves Ship Positions

Midnight Tide

Last reported at 2017-Nov-03 00:16 UTC. Time now 2017-Nov-18 17:58 UTC.
Position N 16°51' W 062°19'.
Warning: this ship's position is 15 days out of date.

Length 62 m; draft 2.5 m.

Type: Ship (hazmat cat A). MMSI: 577366000.

Date/timePositionNaut miles runAvg speedWind from/ knotsBaromVisibWave heightAir tempDewpointWater temp
2017-Nov-03 00:16N 16°51' W 062°19'310.0
2017-Nov-03 00:00N 16°50' W 062°17'4 8.5
2017-Nov-02 23:30N 16°48' W 062°12'0 0.0
2017-Nov-02 22:57N 16°48' W 062°12'0 0.0
2017-Nov-02 22:29N 16°48' W 062°12'3 5.5
2017-Nov-02 22:00N 16°49' W 062°15'5 9.8
2017-Nov-02 21:30N 16°51' W 062°20'7 9.4
2017-Nov-02 20:49N 16°54' W 062°26'  
2017-Oct-29 10:38N 17°19' W 062°23'4 9.6
2017-Oct-29 10:14N 17°18' W 062°20'2 9.6
2017-Oct-29 10:00N 17°17' W 062°18'5 9.7
2017-Oct-29 09:30N 17°16' W 062°13'5 9.8
2017-Oct-29 09:00N 17°14' W 062°08'5 9.6
2017-Oct-29 08:30N 17°12' W 062°03'5 9.6
2017-Oct-29 08:00N 17°11' W 061°58'5 9.4
2017-Oct-29 07:30N 17°09' W 061°54'3 6.0
2017-Oct-29 07:00N 17°07' W 061°51'0 0.0
2017-Oct-29 06:30N 17°07' W 061°51'0 0.0
2017-Oct-29 06:00N 17°07' W 061°51'0 0.0
2017-Oct-29 05:30N 17°07' W 061°51'0 0.0
2017-Oct-29 05:00N 17°07' W 061°51'0 0.0
2017-Oct-29 04:30N 17°07' W 061°51'0 0.0
2017-Oct-29 04:00N 17°07' W 061°51'2 0.3
2017-Oct-28 19:00N 17°09' W 061°53'4 8.2
2017-Oct-28 18:30N 17°09' W 061°57'5 9.5
2017-Oct-28 18:00N 17°08' W 062°02'5 9.4
2017-Oct-28 17:30N 17°07' W 062°07'5 9.5
2017-Oct-28 17:00N 17°07' W 062°12'5 9.7
2017-Oct-28 16:30N 17°07' W 062°17'31 4.3
2017-Oct-28 09:25N 17°17' W 062°47'  
Track history (hours):
 
Tides and Currents Weather Stations Pressure Air Temp Water Temp Dewpoint Dewpoint Depression Visibility Wind Speed Wind Dir Waves Ship Positions

Midnight Tide

Last reported at 2017-Nov-03 00:16 UTC. Time now 2017-Nov-18 17:59 UTC.
Position N 16°51' W 062°19'.
Warning: this ship's position is 15 days out of date.

Length 62 m; draft 2.5 m.

Type: Ship (hazmat cat A). MMSI: 577366000.

Date/timePositionNaut miles runAvg speedWind from/ knotsBaromVisibWave heightAir tempDewpointWater temp
2017-Nov-03 00:16N 16°51' W 062°19'310.0
2017-Nov-03 00:00N 16°50' W 062°17'4 8.5
2017-Nov-02 23:30N 16°48' W 062°12'0 0.0
2017-Nov-02 22:57N 16°48' W 062°12'0 0.0
2017-Nov-02 22:29N 16°48' W 062°12'3 5.5
2017-Nov-02 22:00N 16°49' W 062°15'5 9.8
2017-Nov-02 21:30N 16°51' W 062°20'7 9.4
2017-Nov-02 20:49N 16°54' W 062°26'  
2017-Oct-29 10:38N 17°19' W 062°23'4 9.6
2017-Oct-29 10:14N 17°18' W 062°20'2 9.6
2017-Oct-29 10:00N 17°17' W 062°18'5 9.7
2017-Oct-29 09:30N 17°16' W 062°13'5 9.8
2017-Oct-29 09:00N 17°14' W 062°08'5 9.6
2017-Oct-29 08:30N 17°12' W 062°03'5 9.6
2017-Oct-29 08:00N 17°11' W 061°58'5 9.4
2017-Oct-29 07:30N 17°09' W 061°54'3 6.0
2017-Oct-29 07:00N 17°07' W 061°51'0 0.0
2017-Oct-29 06:30N 17°07' W 061°51'0 0.0
2017-Oct-29 06:00N 17°07' W 061°51'0 0.0
2017-Oct-29 05:30N 17°07' W 061°51'0 0.0
2017-Oct-29 05:00N 17°07' W 061°51'0 0.0
2017-Oct-29 04:30N 17°07' W 061°51'0 0.0
2017-Oct-29 04:00N 17°07' W 061°51'2 0.3
2017-Oct-28 19:00N 17°09' W 061°53'4 8.2
2017-Oct-28 18:30N 17°09' W 061°57'5 9.5
2017-Oct-28 18:00N 17°08' W 062°02'5 9.4
2017-Oct-28 17:30N 17°07' W 062°07'5 9.5
2017-Oct-28 17:00N 17°07' W 062°12'5 9.7
2017-Oct-28 16:30N 17°07' W 062°17'31 4.3
2017-Oct-28 09:25N 17°17' W 062°47'  

Dump ship's entire track history